createdAt,value
2022-11-04T00:00:02.075Z,11.64
2022-11-04T00:01:02.162Z,11.63
2022-11-04T00:02:02.074Z,11.63
2022-11-04T00:03:02.061Z,11.63
2022-11-04T00:04:02.068Z,11.57
2022-11-04T00:05:02.131Z,11.69
2022-11-04T00:06:02.022Z,11.70
2022-11-04T00:07:02.042Z,11.69
2022-11-04T00:08:02.026Z,11.69
2022-11-04T00:09:02.026Z,11.72
2022-11-04T00:10:02.038Z,11.63
2022-11-04T00:11:02.002Z,11.64
2022-11-04T00:12:02.019Z,11.78
2022-11-04T00:13:02.007Z,11.69
2022-11-04T00:14:01.980Z,11.63
2022-11-04T00:15:02.017Z,11.63
2022-11-04T00:16:01.964Z,11.62
2022-11-04T00:17:01.974Z,11.66
2022-11-04T00:18:01.960Z,11.66
2022-11-04T00:19:01.939Z,11.79
2022-11-04T00:20:01.974Z,11.66
2022-11-04T00:21:01.938Z,11.79
2022-11-04T00:22:01.926Z,11.64
2022-11-04T00:23:01.965Z,11.70
2022-11-04T00:24:01.931Z,11.72
2022-11-04T00:25:01.908Z,11.77
2022-11-04T00:26:01.947Z,11.74
2022-11-04T00:27:01.893Z,11.69
2022-11-04T00:28:01.888Z,11.70
2022-11-04T00:29:01.890Z,11.69
2022-11-04T00:30:01.885Z,11.67
2022-11-04T00:31:01.894Z,11.77
2022-11-04T00:32:01.873Z,11.66
2022-11-04T00:33:01.893Z,11.70
2022-11-04T00:34:01.878Z,11.67
2022-11-04T00:35:01.865Z,11.67
2022-11-04T00:36:01.847Z,11.69
2022-11-04T00:37:01.838Z,11.74
2022-11-04T00:38:01.834Z,11.72
2022-11-04T00:39:01.848Z,11.69
2022-11-04T00:40:01.819Z,11.67
2022-11-04T00:41:01.816Z,11.72
2022-11-04T00:42:01.799Z,11.67
2022-11-04T00:43:01.805Z,11.72
2022-11-04T00:44:01.822Z,11.66
2022-11-04T00:45:01.786Z,11.78
2022-11-04T00:46:01.775Z,11.69
2022-11-04T00:47:01.799Z,11.77
2022-11-04T00:48:01.786Z,11.70
2022-11-04T00:49:01.773Z,11.69
2022-11-04T00:50:01.757Z,11.77
2022-11-04T00:51:01.784Z,11.79
2022-11-04T00:52:01.761Z,11.81
2022-11-04T00:53:01.745Z,11.70
2022-11-04T00:54:01.757Z,11.78
2022-11-04T00:55:01.739Z,11.74
2022-11-04T00:56:01.748Z,11.79
2022-11-04T00:57:01.712Z,11.85
2022-11-04T00:58:01.697Z,11.72
2022-11-04T00:59:02.737Z,11.66
2022-11-04T01:00:01.707Z,11.66
2022-11-04T01:01:01.784Z,11.69
2022-11-04T01:02:01.834Z,11.74
2022-11-04T01:03:01.693Z,11.70
2022-11-04T01:04:01.716Z,11.66
2022-11-04T01:05:01.719Z,11.77
2022-11-04T01:06:01.682Z,11.77
2022-11-04T01:07:01.659Z,11.72
2022-11-04T01:08:01.654Z,11.64
2022-11-04T01:09:01.638Z,11.72
2022-11-04T01:10:01.810Z,11.77
2022-11-04T01:11:01.630Z,11.64
2022-11-04T01:12:01.663Z,11.78
2022-11-04T01:13:01.633Z,11.74
2022-11-04T01:14:01.632Z,11.67
2022-11-04T01:15:01.729Z,11.77
2022-11-04T01:16:02.602Z,11.75
2022-11-04T01:17:01.639Z,11.70
2022-11-04T01:18:02.597Z,11.82
2022-11-04T01:19:01.591Z,11.69
2022-11-04T01:20:01.578Z,11.70
2022-11-04T01:21:01.577Z,11.66
2022-11-04T01:22:01.624Z,11.74
2022-11-04T01:23:01.583Z,11.78
2022-11-04T01:24:01.570Z,11.69
2022-11-04T01:25:01.576Z,11.77
2022-11-04T01:26:01.554Z,11.78
2022-11-04T01:27:01.563Z,11.67
2022-11-04T01:28:01.538Z,11.67
2022-11-04T01:29:01.536Z,11.78
2022-11-04T01:30:01.529Z,11.64
2022-11-04T01:31:01.535Z,11.72
2022-11-04T01:32:01.512Z,11.74
2022-11-04T01:33:01.546Z,11.70
2022-11-04T01:34:01.509Z,11.72
2022-11-04T01:35:01.502Z,11.62
2022-11-04T01:36:01.488Z,11.67
2022-11-04T01:37:01.468Z,11.67
2022-11-04T01:38:01.528Z,11.69
2022-11-04T01:39:01.464Z,11.63
2022-11-04T01:40:01.466Z,11.70
2022-11-04T01:41:01.459Z,11.77
2022-11-04T01:43:02.481Z,11.70
2022-11-04T01:44:01.434Z,11.75
2022-11-04T01:45:01.464Z,11.67
2022-11-04T01:46:01.439Z,11.75
2022-11-04T01:47:01.407Z,11.81
2022-11-04T01:48:01.444Z,11.82
2022-11-04T01:49:01.435Z,11.74
2022-11-04T01:50:01.403Z,11.75
2022-11-04T01:51:01.404Z,11.70
2022-11-04T01:52:01.378Z,11.77
2022-11-04T01:53:01.404Z,11.66
2022-11-04T01:54:01.426Z,11.66
2022-11-04T01:55:01.390Z,11.70
2022-11-04T01:56:02.394Z,11.60
2022-11-04T01:57:01.353Z,11.69
2022-11-04T01:58:01.375Z,11.72
2022-11-04T01:59:01.366Z,11.72
2022-11-04T02:00:01.381Z,11.63
2022-11-04T02:01:01.416Z,11.67
2022-11-04T02:02:01.460Z,11.60
2022-11-04T02:03:01.335Z,11.66
2022-11-04T02:04:01.371Z,11.67
2022-11-04T02:05:01.314Z,11.69
2022-11-04T02:06:01.324Z,11.62
2022-11-04T02:07:01.333Z,11.64
2022-11-04T02:08:01.288Z,11.66
2022-11-04T02:09:01.299Z,11.63
2022-11-04T02:10:01.312Z,11.56
2022-11-04T02:11:01.306Z,11.57
2022-11-04T02:12:01.296Z,11.70
2022-11-04T02:13:01.320Z,11.63
2022-11-04T02:14:01.263Z,11.57
2022-11-04T02:15:01.258Z,11.62
2022-11-04T02:16:01.237Z,11.54
2022-11-04T02:17:01.246Z,11.60
2022-11-04T02:18:01.258Z,11.60
2022-11-04T02:19:01.234Z,11.49
2022-11-04T02:20:01.218Z,11.56
2022-11-04T02:21:01.226Z,11.62
2022-11-04T02:22:01.231Z,11.51
2022-11-04T02:23:01.234Z,11.56
2022-11-04T02:24:01.200Z,11.45
2022-11-04T02:25:01.199Z,11.48
2022-11-04T02:26:01.197Z,11.48
2022-11-04T02:27:01.187Z,11.57
2022-11-04T02:28:02.217Z,11.45
2022-11-04T02:29:01.186Z,11.42
2022-11-04T02:30:01.167Z,11.45
2022-11-04T02:31:01.209Z,11.45
2022-11-04T02:32:01.172Z,11.46
2022-11-04T02:33:01.130Z,11.48
2022-11-04T02:34:02.137Z,11.41
2022-11-04T02:35:01.168Z,11.41
2022-11-04T02:36:01.202Z,11.41
2022-11-04T02:37:02.111Z,11.42
2022-11-04T02:38:01.136Z,11.26
2022-11-04T02:39:01.104Z,11.31
2022-11-04T02:40:01.096Z,11.41
2022-11-04T02:41:01.113Z,11.39
2022-11-04T02:42:01.105Z,11.41
2022-11-04T02:43:01.114Z,11.30
2022-11-04T02:44:01.176Z,11.39
2022-11-04T02:45:01.088Z,11.28
2022-11-04T02:46:01.100Z,11.53
2022-11-04T02:47:01.068Z,11.49
2022-11-04T02:48:01.041Z,11.49
2022-11-04T02:49:01.038Z,11.49
2022-11-04T02:50:01.038Z,11.42
2022-11-04T02:51:01.070Z,11.45
2022-11-04T02:52:02.060Z,11.51
2022-11-04T02:53:01.025Z,11.31
2022-11-04T02:54:01.021Z,11.30
2022-11-04T02:55:01.036Z,11.33
2022-11-04T02:56:01.023Z,11.24
2022-11-04T02:57:01.024Z,11.30
2022-11-04T02:58:00.993Z,11.33
2022-11-04T02:59:00.990Z,11.38
2022-11-04T03:00:00.978Z,11.33
2022-11-04T03:01:01.098Z,11.36
2022-11-04T03:02:01.194Z,11.39
2022-11-04T03:03:00.973Z,11.33
2022-11-04T03:04:00.956Z,11.35
2022-11-04T03:05:00.955Z,11.27
2022-11-04T03:06:00.980Z,11.27
2022-11-04T03:07:01.021Z,11.26
2022-11-04T03:08:01.515Z,11.33
2022-11-04T03:09:00.944Z,11.41
2022-11-04T03:10:00.907Z,11.35
2022-11-04T03:11:00.947Z,11.33
2022-11-04T03:12:00.923Z,11.31
2022-11-04T03:13:00.898Z,11.28
2022-11-04T03:14:00.913Z,11.41
2022-11-04T03:15:00.879Z,11.28
2022-11-04T03:16:00.897Z,11.30
2022-11-04T03:17:00.891Z,11.24
2022-11-04T03:18:00.855Z,11.26
2022-11-04T03:19:00.878Z,11.30
2022-11-04T03:20:00.866Z,11.30
2022-11-04T03:21:00.851Z,11.28
2022-11-04T03:22:00.832Z,11.35
2022-11-04T03:23:00.842Z,11.28
2022-11-04T03:24:00.853Z,11.24
2022-11-04T03:25:00.826Z,11.27
2022-11-04T03:26:00.829Z,11.31
2022-11-04T03:27:00.832Z,11.36
2022-11-04T03:28:00.795Z,11.23
2022-11-04T03:29:00.882Z,11.16
2022-11-04T03:30:00.864Z,11.24
2022-11-04T03:31:00.782Z,11.12
2022-11-04T03:32:00.790Z,11.27
2022-11-04T03:33:00.789Z,11.21
2022-11-04T03:34:00.776Z,11.12
2022-11-04T03:35:00.798Z,11.02
2022-11-04T03:36:00.797Z,10.98
2022-11-04T03:37:00.769Z,11.01
2022-11-04T03:38:00.744Z,11.01
2022-11-04T03:39:00.742Z,10.93
2022-11-04T03:40:00.755Z,10.94
2022-11-04T03:41:00.728Z,10.98
2022-11-04T03:42:00.726Z,10.98
2022-11-04T03:43:00.735Z,10.94
2022-11-04T03:44:00.710Z,10.98
2022-11-04T03:45:00.725Z,10.88
2022-11-04T03:46:00.708Z,10.99
2022-11-04T03:47:00.695Z,10.86
2022-11-04T03:48:00.706Z,10.95
2022-11-04T03:49:00.677Z,10.90
2022-11-04T03:50:00.686Z,10.93
2022-11-04T03:51:00.726Z,10.90
2022-11-04T03:52:00.670Z,10.86
2022-11-04T03:53:00.659Z,10.91
2022-11-04T03:54:00.665Z,10.88
2022-11-04T03:55:00.656Z,10.91
2022-11-04T03:56:00.686Z,10.78
2022-11-04T03:57:00.666Z,10.84
2022-11-04T03:58:00.641Z,10.81
2022-11-04T03:59:00.639Z,10.86
2022-11-04T04:00:00.614Z,10.86
2022-11-04T04:01:00.653Z,10.78
2022-11-04T04:02:00.817Z,10.70
2022-11-04T04:03:00.974Z,10.63
2022-11-04T04:04:00.603Z,10.66
2022-11-04T04:05:00.632Z,10.63
2022-11-04T04:06:00.587Z,10.49
2022-11-04T04:07:00.580Z,10.44
2022-11-04T04:08:00.573Z,10.47
2022-11-04T04:09:00.587Z,10.43
2022-11-04T04:10:00.565Z,10.43
2022-11-04T04:11:00.552Z,10.51
2022-11-04T04:12:01.520Z,10.52
2022-11-04T04:13:00.560Z,10.49
2022-11-04T04:14:00.569Z,10.46
2022-11-04T04:15:00.650Z,10.52
2022-11-04T04:16:00.542Z,10.47
2022-11-04T04:17:00.556Z,10.43
2022-11-04T04:18:00.635Z,10.46
2022-11-04T04:19:00.551Z,10.25
2022-11-04T04:20:00.511Z,9.80
2022-11-04T04:21:00.488Z,9.56
2022-11-04T04:22:00.487Z,9.31
2022-11-04T04:23:00.490Z,9.23
2022-11-04T04:24:00.504Z,9.16
2022-11-04T04:25:00.509Z,9.17
2022-11-04T04:26:00.471Z,9.22
2022-11-04T04:27:00.465Z,9.30
2022-11-04T04:28:00.455Z,9.38
2022-11-04T04:29:00.447Z,9.37
2022-11-04T04:30:00.467Z,9.50
2022-11-04T04:31:00.567Z,9.42
2022-11-04T04:32:00.450Z,9.31
2022-11-04T04:33:00.427Z,9.32
2022-11-04T04:34:00.434Z,9.44
2022-11-04T04:35:00.587Z,9.55
2022-11-04T04:36:00.493Z,9.56
2022-11-04T04:37:00.413Z,9.58
2022-11-04T04:38:00.390Z,9.71
2022-11-04T04:39:00.413Z,9.78
2022-11-04T04:40:00.449Z,9.77
2022-11-04T04:41:00.425Z,9.80
2022-11-04T04:42:00.376Z,9.91
2022-11-04T04:43:00.380Z,10.06
2022-11-04T04:44:00.367Z,10.07
2022-11-04T04:45:00.361Z,10.11
2022-11-04T04:46:00.385Z,10.09
2022-11-04T04:47:00.378Z,10.16
2022-11-04T04:48:00.366Z,10.14
2022-11-04T04:49:00.338Z,10.14
2022-11-04T04:50:00.338Z,10.24
2022-11-04T04:51:00.349Z,10.17
2022-11-04T04:52:01.253Z,10.20
2022-11-04T04:53:00.367Z,10.26
2022-11-04T04:54:00.314Z,10.29
2022-11-04T04:55:00.307Z,10.29
2022-11-04T04:56:00.323Z,10.32
2022-11-04T04:57:00.365Z,10.31
2022-11-04T04:58:00.320Z,10.34
2022-11-04T04:59:00.285Z,10.43
2022-11-04T05:00:00.288Z,10.31
2022-11-04T05:01:00.369Z,10.35
2022-11-04T05:02:00.540Z,10.20
2022-11-04T05:03:00.320Z,10.22
2022-11-04T05:04:00.263Z,10.09
2022-11-04T05:05:00.326Z,10.09
2022-11-04T05:06:00.291Z,10.17
2022-11-04T05:07:00.272Z,10.16
2022-11-04T05:08:00.248Z,10.06
2022-11-04T05:09:00.271Z,10.01
2022-11-04T05:10:00.280Z,9.96
2022-11-04T05:11:00.222Z,9.86
2022-11-04T05:12:00.265Z,9.88
2022-11-04T05:13:00.238Z,9.77
2022-11-04T05:14:00.222Z,9.83
2022-11-04T05:15:00.227Z,9.86
2022-11-04T05:16:00.778Z,9.92
2022-11-04T05:17:00.203Z,9.96
2022-11-04T05:18:00.333Z,9.93
2022-11-04T05:19:00.194Z,10.07
2022-11-04T05:20:00.200Z,10.11
2022-11-04T05:21:00.195Z,10.02
2022-11-04T05:22:00.187Z,9.98
2022-11-04T05:23:00.165Z,10.04
2022-11-04T05:24:00.180Z,9.99
2022-11-04T05:25:00.155Z,10.06
2022-11-04T05:26:00.179Z,9.99
2022-11-04T05:27:00.208Z,9.93
2022-11-04T05:28:00.162Z,10.01
2022-11-04T05:29:00.148Z,9.91
2022-11-04T05:30:00.134Z,10.01
2022-11-04T05:31:00.154Z,9.96
2022-11-04T05:32:00.132Z,9.91
2022-11-04T05:33:03.615Z,9.77
2022-11-04T05:34:01.138Z,9.53
2022-11-04T05:35:00.111Z,9.60
2022-11-04T05:36:00.103Z,9.55
2022-11-04T05:37:00.151Z,9.52
2022-11-04T05:38:00.104Z,9.60
2022-11-04T05:39:00.121Z,9.68
2022-11-04T05:40:00.090Z,9.59
2022-11-04T05:41:00.078Z,9.56
2022-11-04T05:42:00.106Z,9.52
2022-11-04T05:43:00.087Z,9.52
2022-11-04T05:44:00.135Z,9.62
2022-11-04T05:45:00.073Z,9.74
2022-11-04T05:46:00.058Z,9.74
2022-11-04T05:47:00.051Z,9.68
2022-11-04T05:48:00.095Z,9.70
2022-11-04T05:49:00.018Z,9.81
2022-11-04T05:50:00.074Z,9.77
2022-11-04T05:51:00.024Z,9.85
2022-11-04T05:52:00.026Z,9.86
2022-11-04T05:53:00.013Z,9.91
2022-11-04T05:54:00.059Z,9.85
2022-11-04T05:55:00.023Z,9.78
2022-11-04T05:56:00.024Z,9.81
2022-11-04T05:57:00.708Z,9.89
2022-11-04T05:58:00.120Z,9.83
2022-11-04T05:58:59.988Z,9.83
2022-11-04T05:59:59.987Z,9.81
2022-11-04T06:00:59.974Z,9.89
2022-11-04T06:02:00.029Z,9.80
2022-11-04T06:03:00.002Z,9.77
2022-11-04T06:03:59.950Z,9.81
2022-11-04T06:05:00.052Z,9.81
2022-11-04T06:05:59.991Z,9.80
2022-11-04T06:06:59.969Z,9.81
2022-11-04T06:07:59.968Z,9.74
2022-11-04T06:08:59.928Z,9.86
2022-11-04T06:09:59.960Z,9.99
2022-11-04T06:10:59.993Z,9.86
2022-11-04T06:11:59.934Z,9.83
2022-11-04T06:12:59.911Z,9.74
2022-11-04T06:13:59.915Z,9.85
2022-11-04T06:14:59.902Z,9.80
2022-11-04T06:16:00.040Z,9.91
2022-11-04T06:16:59.954Z,9.89
2022-11-04T06:17:59.914Z,9.86
2022-11-04T06:19:03.450Z,9.74
2022-11-04T06:20:01.882Z,9.88
2022-11-04T06:20:59.904Z,9.89
2022-11-04T06:21:59.873Z,9.71
2022-11-04T06:22:59.901Z,9.73
2022-11-04T06:23:59.863Z,9.81
2022-11-04T06:24:59.845Z,9.81
2022-11-04T06:25:59.881Z,9.85
2022-11-04T06:26:59.881Z,9.80
2022-11-04T06:27:59.856Z,9.67
2022-11-04T06:28:59.830Z,9.89
2022-11-04T06:29:59.817Z,9.74
2022-11-04T06:30:59.829Z,9.74
2022-11-04T06:31:59.806Z,9.71
2022-11-04T06:32:59.889Z,9.80
2022-11-04T06:33:59.834Z,9.81
2022-11-04T06:34:59.822Z,9.70
2022-11-04T06:35:59.799Z,9.70
2022-11-04T06:36:59.802Z,9.50
2022-11-04T06:37:59.828Z,9.31
2022-11-04T06:39:04.470Z,8.88
2022-11-04T06:40:01.768Z,8.70
2022-11-04T06:40:59.806Z,8.55
2022-11-04T06:42:02.625Z,8.40
2022-11-04T06:43:00.770Z,8.36
2022-11-04T06:43:59.763Z,8.31
2022-11-04T06:44:59.752Z,8.27
2022-11-04T06:45:59.772Z,8.29
2022-11-04T06:46:59.751Z,8.25
2022-11-04T06:47:59.777Z,8.29
2022-11-04T06:48:59.803Z,8.29
2022-11-04T06:49:59.756Z,8.28
2022-11-04T06:50:59.725Z,8.28
2022-11-04T06:51:59.708Z,8.31
2022-11-04T06:52:59.722Z,8.22
2022-11-04T06:53:59.721Z,8.29
2022-11-04T06:54:59.735Z,8.27
2022-11-04T06:55:59.760Z,8.27
2022-11-04T06:56:59.689Z,8.37
2022-11-04T06:57:59.706Z,8.32
2022-11-04T06:58:59.695Z,8.45
2022-11-04T06:59:59.696Z,8.34
2022-11-04T07:00:59.721Z,8.37
2022-11-04T07:02:00.786Z,8.36
2022-11-04T07:02:59.668Z,8.45
2022-11-04T07:03:59.672Z,8.57
2022-11-04T07:04:59.675Z,8.67
2022-11-04T07:05:59.840Z,8.68
2022-11-04T07:06:59.636Z,8.70
2022-11-04T07:07:59.650Z,8.86
2022-11-04T07:08:59.641Z,8.89
2022-11-04T07:09:59.650Z,8.89
2022-11-04T07:10:59.657Z,8.86
2022-11-04T07:11:59.633Z,8.79
2022-11-04T07:12:59.632Z,8.79
2022-11-04T07:13:59.640Z,8.96
2022-11-04T07:14:59.609Z,9.03
2022-11-04T07:15:59.620Z,9.01
2022-11-04T07:16:59.629Z,9.20
2022-11-04T07:17:59.614Z,9.26
2022-11-04T07:18:59.710Z,9.37
2022-11-04T07:19:59.631Z,9.48
2022-11-04T07:20:59.720Z,9.52
2022-11-04T07:21:59.644Z,9.59
2022-11-04T07:22:59.625Z,9.55
2022-11-04T07:23:59.769Z,9.68
2022-11-04T07:24:59.653Z,9.68
2022-11-04T07:25:59.569Z,9.71
2022-11-04T07:26:59.556Z,9.65
2022-11-04T07:28:02.261Z,9.85
2022-11-04T07:29:00.602Z,9.75
2022-11-04T07:29:59.529Z,9.85
2022-11-04T07:30:59.551Z,9.81
2022-11-04T07:31:59.545Z,9.81
2022-11-04T07:32:59.547Z,9.86
2022-11-04T07:33:59.565Z,9.75
2022-11-04T07:34:59.513Z,9.75
2022-11-04T07:35:59.521Z,9.67
2022-11-04T07:36:59.534Z,9.78
2022-11-04T07:38:00.501Z,9.89
2022-11-04T07:38:59.490Z,9.88
2022-11-04T07:39:59.483Z,9.74
2022-11-04T07:40:59.513Z,9.80
2022-11-04T07:41:59.900Z,9.70
2022-11-04T07:43:00.480Z,9.73
2022-11-04T07:43:59.461Z,9.71
2022-11-04T07:44:59.502Z,9.74
2022-11-04T07:45:59.477Z,9.83
2022-11-04T07:46:59.492Z,9.71
2022-11-04T07:47:59.445Z,9.74
2022-11-04T07:48:59.439Z,9.83
2022-11-04T07:49:59.461Z,9.77
2022-11-04T07:50:59.436Z,9.85
2022-11-04T07:51:59.472Z,9.75
2022-11-04T07:52:59.460Z,9.73
2022-11-04T07:53:59.411Z,9.81
2022-11-04T07:54:59.415Z,9.77
2022-11-04T07:55:59.482Z,9.77
2022-11-04T07:56:59.431Z,9.91
2022-11-04T07:57:59.427Z,9.88
2022-11-04T07:58:59.503Z,9.89
2022-11-04T07:59:59.409Z,10.02
2022-11-04T08:00:59.384Z,10.10
2022-11-04T08:01:59.467Z,10.07
2022-11-04T08:02:59.509Z,10.10
2022-11-04T08:03:59.412Z,10.07
2022-11-04T08:04:59.377Z,9.95
2022-11-04T08:05:59.396Z,9.80
2022-11-04T08:06:59.390Z,9.52
2022-11-04T08:07:59.445Z,9.56
2022-11-04T08:08:59.431Z,9.68
2022-11-04T08:09:59.363Z,9.65
2022-11-04T08:10:59.328Z,9.77
2022-11-04T08:11:59.333Z,9.80
2022-11-04T08:12:59.363Z,9.95
2022-11-04T08:13:59.382Z,9.98
2022-11-04T08:14:59.306Z,10.01
2022-11-04T08:15:59.322Z,10.04
2022-11-04T08:16:59.296Z,10.06
2022-11-04T08:17:59.297Z,9.96
2022-11-04T08:18:59.319Z,10.10
2022-11-04T08:19:59.309Z,10.13
2022-11-04T08:20:59.292Z,10.11
2022-11-04T08:21:59.291Z,10.17
2022-11-04T08:22:59.264Z,10.18
2022-11-04T08:23:59.321Z,10.17
2022-11-04T08:24:59.303Z,10.24
2022-11-04T08:25:59.282Z,10.29
2022-11-04T08:26:59.248Z,10.42
2022-11-04T08:28:01.155Z,10.42
2022-11-04T08:29:00.242Z,10.57
2022-11-04T08:29:59.258Z,10.44
2022-11-04T08:30:59.219Z,10.28
2022-11-04T08:31:59.228Z,10.38
2022-11-04T08:32:59.291Z,10.42
2022-11-04T08:33:59.202Z,10.28
2022-11-04T08:34:59.219Z,10.49
2022-11-04T08:35:59.186Z,10.49
2022-11-04T08:36:59.210Z,10.34
2022-11-04T08:37:59.199Z,10.32
2022-11-04T08:38:59.165Z,10.35
2022-11-04T08:39:59.190Z,10.36
2022-11-04T08:41:00.210Z,10.44
2022-11-04T08:42:00.157Z,10.49
2022-11-04T08:42:59.187Z,10.54
2022-11-04T08:43:59.147Z,10.43
2022-11-04T08:44:59.142Z,10.52
2022-11-04T08:45:59.294Z,10.51
2022-11-04T08:46:59.200Z,10.49
2022-11-04T08:48:04.207Z,10.47
2022-11-04T08:49:01.815Z,10.47
2022-11-04T08:49:59.097Z,10.39
2022-11-04T08:50:59.145Z,10.34
2022-11-04T08:51:59.110Z,10.43
2022-11-04T08:52:59.100Z,10.38
2022-11-04T08:53:59.105Z,10.28
2022-11-04T08:54:59.087Z,10.35
2022-11-04T08:55:59.148Z,10.22
2022-11-04T08:56:59.132Z,10.32
2022-11-04T08:57:59.081Z,10.35
2022-11-04T08:58:59.069Z,10.24
2022-11-04T08:59:59.169Z,10.35
2022-11-04T09:00:59.056Z,10.36
2022-11-04T09:01:59.197Z,10.46
2022-11-04T09:02:59.145Z,10.49
2022-11-04T09:03:59.112Z,10.51
2022-11-04T09:04:59.028Z,10.55
2022-11-04T09:05:59.036Z,10.60
2022-11-04T09:06:59.335Z,10.69
2022-11-04T09:07:59.097Z,10.73
2022-11-04T09:08:59.039Z,10.78
2022-11-04T09:09:59.081Z,10.66
2022-11-04T09:10:59.023Z,10.76
2022-11-04T09:11:59.024Z,10.75
2022-11-04T09:12:59.016Z,10.84
2022-11-04T09:13:59.003Z,10.88
2022-11-04T09:14:59.000Z,10.87
2022-11-04T09:15:59.245Z,10.86
2022-11-04T09:16:58.967Z,10.86
2022-11-04T09:17:59.014Z,10.88
2022-11-04T09:18:58.956Z,10.87
2022-11-04T09:19:59.019Z,10.83
2022-11-04T09:20:58.976Z,10.83
2022-11-04T09:21:58.938Z,10.81
2022-11-04T09:22:58.938Z,10.75
2022-11-04T09:23:59.003Z,10.87
2022-11-04T09:24:58.992Z,10.88
2022-11-04T09:25:58.934Z,10.91
2022-11-04T09:26:58.928Z,10.99
2022-11-04T09:27:58.905Z,10.91
2022-11-04T09:28:59.032Z,11.03
2022-11-04T09:29:58.922Z,11.05
2022-11-04T09:30:58.895Z,11.09
2022-11-04T09:31:59.381Z,11.16
2022-11-04T09:32:58.905Z,11.12
2022-11-04T09:33:58.858Z,11.13
2022-11-04T09:34:58.909Z,11.21
2022-11-04T09:35:58.851Z,11.31
2022-11-04T09:36:58.850Z,11.49
2022-11-04T09:37:58.892Z,11.59
2022-11-04T09:38:58.937Z,11.62
2022-11-04T09:39:58.868Z,11.64
2022-11-04T09:40:58.823Z,11.39
2022-11-04T09:41:58.843Z,11.24
2022-11-04T09:42:58.850Z,11.11
2022-11-04T09:43:58.815Z,10.86
2022-11-04T09:46:00.832Z,10.52
2022-11-04T09:46:58.818Z,10.44
2022-11-04T09:47:58.876Z,10.47
2022-11-04T09:48:58.774Z,10.49
2022-11-04T09:49:58.760Z,10.51
2022-11-04T09:50:58.762Z,10.32
2022-11-04T09:51:58.750Z,10.35
2022-11-04T09:52:58.773Z,10.34
2022-11-04T09:53:58.752Z,10.42
2022-11-04T09:54:58.716Z,10.44
2022-11-04T09:55:58.715Z,10.69
2022-11-04T09:56:58.709Z,10.86
2022-11-04T09:57:58.833Z,10.75
2022-11-04T09:58:58.694Z,11.05
2022-11-04T09:59:58.702Z,11.09
2022-11-04T10:00:58.774Z,11.30
2022-11-04T10:01:58.778Z,11.26
2022-11-04T10:02:58.702Z,11.20
2022-11-04T10:03:58.725Z,11.23
2022-11-04T10:04:58.651Z,10.99
2022-11-04T10:05:58.643Z,11.05
2022-11-04T10:06:58.651Z,11.01
2022-11-04T10:07:58.656Z,11.02
2022-11-04T10:08:58.672Z,11.13
2022-11-04T10:09:58.616Z,11.13
2022-11-04T10:10:58.613Z,11.27
2022-11-04T10:11:58.610Z,11.62
2022-11-04T10:12:58.637Z,11.74
2022-11-04T10:13:58.611Z,11.87
2022-11-04T10:14:58.607Z,11.85
2022-11-04T10:15:58.590Z,11.85
2022-11-04T10:16:58.606Z,11.85
2022-11-04T10:17:58.572Z,11.85
2022-11-04T10:18:58.588Z,11.87
2022-11-04T10:19:58.621Z,11.69
2022-11-04T10:20:58.541Z,11.53
2022-11-04T10:21:58.542Z,11.48
2022-11-04T10:22:58.557Z,11.45
2022-11-04T10:23:58.530Z,11.54
2022-11-04T10:24:58.581Z,11.59
2022-11-04T10:25:58.541Z,11.59
2022-11-04T10:27:00.750Z,11.53
2022-11-04T10:27:59.516Z,11.26
2022-11-04T10:28:58.494Z,11.17
2022-11-04T10:29:58.508Z,11.09
2022-11-04T10:30:58.473Z,11.09
2022-11-04T10:31:58.476Z,10.87
2022-11-04T10:32:58.511Z,10.84
2022-11-04T10:33:58.467Z,10.88
2022-11-04T10:34:58.483Z,10.94
2022-11-04T10:35:58.547Z,10.90
2022-11-04T10:36:58.442Z,11.02
2022-11-04T10:37:58.422Z,11.11
2022-11-04T10:38:58.435Z,11.08
2022-11-04T10:39:58.432Z,11.24
2022-11-04T10:41:01.725Z,11.13
2022-11-04T10:41:59.397Z,11.09
2022-11-04T10:42:58.401Z,11.26
2022-11-04T10:43:58.393Z,11.49
2022-11-04T10:44:58.473Z,11.64
2022-11-04T10:45:58.408Z,11.48
2022-11-04T10:46:58.377Z,11.51
2022-11-04T10:47:58.431Z,11.69
2022-11-04T10:48:58.373Z,11.88
2022-11-04T10:51:00.408Z,12.44
2022-11-04T10:51:58.463Z,12.56
2022-11-04T10:52:58.316Z,12.54
2022-11-04T10:53:58.337Z,12.41
2022-11-04T10:54:59.342Z,12.40
2022-11-04T10:55:58.315Z,12.37
2022-11-04T10:56:58.371Z,12.31
2022-11-04T10:57:58.302Z,12.31
2022-11-04T10:58:58.376Z,12.36
2022-11-04T10:59:58.276Z,12.44
2022-11-04T11:00:58.366Z,12.41
2022-11-04T11:01:58.487Z,12.46
2022-11-04T11:02:58.263Z,12.55
2022-11-04T11:03:58.279Z,12.63
2022-11-04T11:04:58.276Z,12.67
2022-11-04T11:05:58.244Z,12.66
2022-11-04T11:06:58.391Z,12.73
2022-11-04T11:07:58.251Z,12.77
2022-11-04T11:08:58.217Z,12.84
2022-11-04T11:09:58.238Z,12.98
2022-11-04T11:10:58.210Z,13.01
2022-11-04T11:11:58.211Z,12.96
2022-11-04T11:12:58.197Z,13.10
2022-11-04T11:13:58.211Z,13.35
2022-11-04T11:14:58.197Z,13.50
2022-11-04T11:15:58.174Z,13.54
2022-11-04T11:16:58.154Z,13.54
2022-11-04T11:17:58.176Z,13.72
2022-11-04T11:18:58.181Z,13.81
2022-11-04T11:19:58.137Z,13.65
2022-11-04T11:20:58.129Z,13.57
2022-11-04T11:21:58.147Z,13.72
2022-11-04T11:23:03.541Z,13.65
2022-11-04T11:24:00.114Z,13.62
2022-11-04T11:24:58.150Z,13.36
2022-11-04T11:25:58.120Z,13.43
2022-11-04T11:26:58.089Z,13.44
2022-11-04T11:27:58.096Z,13.41
2022-11-04T11:28:59.385Z,13.43
2022-11-04T11:29:59.072Z,13.25
2022-11-04T11:30:58.066Z,13.19
2022-11-04T11:31:58.081Z,13.14
2022-11-04T11:32:58.039Z,13.16
2022-11-04T11:33:58.022Z,13.16
2022-11-04T11:34:58.026Z,13.25
2022-11-04T11:35:58.059Z,13.31
2022-11-04T11:36:58.019Z,13.36
2022-11-04T11:37:57.998Z,13.50
2022-11-04T11:38:57.985Z,13.44
2022-11-04T11:39:58.021Z,13.51
2022-11-04T11:41:23.479Z,13.35
2022-11-04T11:41:59.959Z,13.21
2022-11-04T11:42:57.968Z,13.12
2022-11-04T11:43:57.981Z,13.13
2022-11-04T11:44:57.953Z,13.09
2022-11-04T11:45:57.936Z,13.24
2022-11-04T11:46:57.952Z,13.38
2022-11-04T11:47:57.910Z,13.46
2022-11-04T11:48:57.971Z,13.54
2022-11-04T11:49:57.906Z,13.51
2022-11-04T11:50:57.920Z,13.63
2022-11-04T11:51:57.891Z,13.57
2022-11-04T11:52:57.919Z,13.62
2022-11-04T11:53:57.891Z,13.39
2022-11-04T11:54:57.884Z,13.31
2022-11-04T11:55:57.901Z,13.32
2022-11-04T11:57:15.162Z,13.38
2022-11-04T12:01:05.965Z,13.19
2022-11-04T12:01:59.914Z,13.13
2022-11-04T12:02:57.995Z,13.01
2022-11-04T12:09:59.781Z,13.36
2022-11-04T12:10:57.758Z,13.53
2022-11-04T12:11:57.821Z,13.68
2022-11-04T12:12:57.766Z,13.76
2022-11-04T12:13:57.760Z,13.88
2022-11-04T12:14:57.718Z,13.84
2022-11-04T12:15:57.705Z,13.96
2022-11-04T12:16:57.723Z,13.96
2022-11-04T12:17:57.712Z,14.11
2022-11-04T12:18:57.661Z,14.16
2022-11-04T12:19:58.718Z,14.12
2022-11-04T12:20:57.673Z,14.16
2022-11-04T12:21:57.686Z,14.20
2022-11-04T12:22:57.670Z,14.29
2022-11-04T12:23:57.652Z,14.29
2022-11-04T12:24:57.744Z,14.34
2022-11-04T12:25:57.632Z,14.12
2022-11-04T12:26:57.632Z,14.12
2022-11-04T12:27:57.635Z,14.09
2022-11-04T12:28:57.841Z,13.93
2022-11-04T12:29:57.596Z,14.01
2022-11-04T12:30:57.650Z,13.80
2022-11-04T12:31:57.624Z,13.75
2022-11-04T12:32:57.577Z,13.81
2022-11-04T12:33:57.575Z,13.96
2022-11-04T12:34:57.566Z,13.83
2022-11-04T12:35:57.574Z,13.88
2022-11-04T12:36:57.617Z,14.08
2022-11-04T12:37:57.584Z,13.99
2022-11-04T12:38:57.580Z,14.09
2022-11-04T12:39:57.518Z,14.17
2022-11-04T12:41:19.081Z,14.13
2022-11-04T12:42:20.213Z,14.26
2022-11-04T12:42:59.523Z,14.23
2022-11-04T12:43:57.531Z,14.21
2022-11-04T12:44:57.491Z,14.20
2022-11-04T12:45:57.488Z,14.31
2022-11-04T12:46:57.478Z,14.35
2022-11-04T12:47:57.481Z,14.41
2022-11-04T12:49:00.759Z,14.29
2022-11-04T12:49:59.459Z,14.42
2022-11-04T12:50:57.438Z,14.41
2022-11-04T12:51:57.442Z,14.45
2022-11-04T12:52:57.454Z,14.26
2022-11-04T12:53:57.426Z,14.36
2022-11-04T12:54:57.438Z,14.19
2022-11-04T12:55:57.404Z,14.08
2022-11-04T12:56:57.385Z,14.17
2022-11-04T12:57:57.390Z,13.93
2022-11-04T12:58:57.377Z,14.06
2022-11-04T12:59:57.402Z,14.01
2022-11-04T13:00:59.720Z,13.96
2022-11-04T13:01:58.426Z,13.98
2022-11-04T13:02:57.401Z,13.99
2022-11-04T13:03:57.390Z,13.96
2022-11-04T13:04:57.331Z,13.99
2022-11-04T13:05:57.365Z,14.08
2022-11-04T13:06:57.321Z,14.06
2022-11-04T13:07:57.313Z,14.20
2022-11-04T13:08:57.324Z,14.13
2022-11-04T13:09:57.322Z,14.12
2022-11-04T13:10:57.295Z,14.20